Time;durP1;ratioP1;P1;durP2;ratioP2;P2;SDS_P1;SDS_P2;PMS_P1;PMS_P2;Temp;Humidity;BMP_temperature;BMP_pressure;BME280_temperature;BME280_humidity;BME280_pressure;Samples;Min_cycle;Max_cycle;Signal;HPM_P1;HPM_P2
2023/05/31 00:01:34;;;;;;;4.05;3.67;;;;;;;8.41;100.00;102630.13;5052900;28;20595;-48
2023/05/31 00:04:00;;;;;;;5.50;3.45;;;;;;;8.50;100.00;102631.91;5053028;28;20178;-50
2023/05/31 00:06:25;;;;;;;4.65;3.78;;;;;;;8.49;100.00;102642.63;5053124;28;20290;-49
2023/05/31 00:08:51;;;;;;;5.47;4.20;;;;;;;8.28;100.00;102641.69;5053017;28;20583;-47
2023/05/31 00:11:16;;;;;;;5.38;4.07;;;;;;;8.04;100.00;102630.09;5053045;28;20175;-47
2023/05/31 00:13:42;;;;;;;6.00;3.97;;;;;;;7.89;100.00;102621.16;5052955;28;20249;-46
2023/05/31 00:16:07;;;;;;;7.00;3.85;;;;;;;8.10;100.00;102633.66;5052764;28;20183;-49
2023/05/31 00:18:33;;;;;;;3.65;3.17;;;;;;;8.17;100.00;102631.00;5053239;28;20171;-48
2023/05/31 00:20:58;;;;;;;3.85;3.42;;;;;;;8.19;100.00;102639.91;5052873;28;20251;-51
2023/05/31 00:23:24;;;;;;;5.65;3.80;;;;;;;8.23;100.00;102631.00;5052895;28;20160;-48
2023/05/31 00:25:49;;;;;;;4.18;3.45;;;;;;;8.21;100.00;102635.44;5052510;28;20187;-48
2023/05/31 00:28:15;;;;;;;6.13;3.67;;;;;;;8.16;100.00;102639.91;5052677;28;20168;-49
2023/05/31 00:30:40;;;;;;;9.07;3.40;;;;;;;8.14;100.00;102631.00;5051719;28;20634;-52
2023/05/31 00:33:06;;;;;;;5.75;3.83;;;;;;;7.96;100.00;102628.28;5052399;28;20223;-49
2023/05/31 00:35:31;;;;;;;3.97;3.50;;;;;;;8.04;100.00;102629.19;5052585;28;20203;-46
2023/05/31 00:37:57;;;;;;;4.00;3.60;;;;;;;7.91;100.00;102627.41;5052419;28;20613;-53
2023/05/31 00:40:22;;;;;;;5.75;3.97;;;;;;;7.86;100.00;102630.06;5052495;28;20179;-48
2023/05/31 00:42:48;;;;;;;5.45;4.45;;;;;;;7.73;100.00;102633.59;5051381;28;20699;-49
2023/05/31 00:45:13;;;;;;;4.80;4.05;;;;;;;7.56;100.00;102638.88;5052139;28;20221;-49
2023/05/31 00:47:39;;;;;;;5.13;3.53;;;;;;;7.71;100.00;102644.25;5050662;28;20167;-50
2023/05/31 00:50:06;;;;;;;4.03;3.63;;;;;;;7.81;100.00;102640.72;5052397;28;20541;-52
2023/05/31 00:52:33;;;;;;;5.10;3.55;;;;;;;7.76;100.00;102642.50;5050747;28;20198;-49
2023/05/31 00:55:01;;;;;;;7.07;3.58;;;;;;;7.71;100.00;102638.91;5050524;28;20203;-49
2023/05/31 00:57:27;;;;;;;7.15;4.00;;;;;;;7.55;100.00;102639.78;5052171;28;20168;-48
2023/05/31 00:59:52;;;;;;;4.25;3.50;;;;;;;7.67;100.00;102631.78;5050893;28;20198;-50
2023/05/31 01:02:20;;;;;;;3.80;3.35;;;;;;;7.60;100.00;102636.22;5050594;28;20591;-49
2023/05/31 01:04:47;;;;;;;4.25;3.60;;;;;;;7.60;100.00;102633.56;5051941;28;20199;-48
2023/05/31 01:07:13;;;;;;;5.45;3.70;;;;;;;7.50;100.00;102626.44;5051778;28;20626;-50
2023/05/31 01:09:42;;;;;;;6.38;4.03;;;;;;;7.26;100.00;102631.63;5052191;28;20175;-52
2023/05/31 01:12:42;;;;;;;4.53;3.72;;;;;;;7.38;100.00;102626.38;5051924;28;20176;-50
2023/05/31 01:15:25;;;;;;;6.45;4.05;;;;;;;7.33;100.00;102628.13;5051767;28;20191;-50
2023/05/31 01:18:03;;;;;;;6.47;4.00;;;;;;;7.37;100.00;102636.16;5050548;28;20207;-49
2023/05/31 01:20:34;;;;;;;4.40;3.83;;;;;;;7.36;100.00;102622.81;5050402;28;20197;-50
2023/05/31 01:23:28;;;;;;;4.55;3.42;;;;;;;7.31;100.00;102630.78;5050529;28;20186;-48
2023/05/31 01:26:29;;;;;;;6.40;3.47;;;;;;;7.26;100.00;102627.22;5049990;28;20191;-48
2023/05/31 01:29:00;;;;;;;4.82;3.80;;;;;;;7.12;100.00;102640.47;5051632;28;20167;-47
2023/05/31 01:31:27;;;;;;;4.63;3.47;;;;;;;7.17;100.00;102636.06;5051515;28;20160;-48
2023/05/31 01:33:54;;;;;;;4.15;3.58;;;;;;;7.20;100.00;102633.41;5051421;28;20195;-49
2023/05/31 01:36:22;;;;;;;5.50;3.85;;;;;;;7.16;100.00;102638.72;5048982;28;20420;-48
2023/05/31 01:38:47;;;;;;;4.90;3.50;;;;;;;7.16;100.00;102636.06;5050028;28;20164;-48
2023/05/31 01:41:15;;;;;;;5.40;4.18;;;;;;;6.92;100.00;102639.47;5051300;28;20255;-49
2023/05/31 01:43:43;;;;;;;4.90;3.63;;;;;;;6.72;100.00;102637.56;5050007;28;20199;-47
2023/05/31 01:46:10;;;;;;;5.78;4.18;;;;;;;6.89;100.00;102636.81;5051251;28;20572;-48
2023/05/31 01:48:37;;;;;;;6.93;3.88;;;;;;;7.00;100.00;102635.09;5050147;28;20241;-49
2023/05/31 01:51:05;;;;;;;7.30;4.00;;;;;;;6.79;100.00;102636.72;5051199;28;20576;-49
2023/05/31 01:53:31;;;;;;;5.18;3.92;;;;;;;6.79;100.00;102642.03;5033299;28;20537;-47
2023/05/31 01:55:59;;;;;;;3.97;3.58;;;;;;;6.97;100.00;102645.72;5049709;28;20249;-46
2023/05/31 01:58:27;;;;;;;6.70;4.55;;;;;;;6.71;100.00;102637.53;5050015;28;20233;-48
2023/05/31 02:00:54;;;;;;;8.05;4.25;;;;;;;6.53;100.00;102636.53;5048663;28;20696;-48
2023/05/31 02:03:20;;;;;;;5.15;4.20;;;;;;;6.54;100.00;102621.47;5049718;28;20242;-47
2023/05/31 02:05:56;;;;;;;5.30;3.78;;;;;;;6.65;100.00;102632.16;5050930;28;20278;-48
2023/05/31 02:08:23;;;;;;;7.03;3.83;;;;;;;6.60;100.00;102618.81;5050889;28;20159;-52
2023/05/31 02:10:49;;;;;;;5.72;3.85;;;;;;;6.50;100.00;102615.22;5051010;28;20167;-48
2023/05/31 02:13:14;;;;;;;6.35;4.32;;;;;;;6.63;100.00;102613.53;5049435;28;20207;-48
2023/05/31 02:15:41;;;;;;;5.63;3.83;;;;;;;6.64;100.00;102623.28;5048044;28;20590;-49
2023/05/31 02:18:07;;;;;;;4.50;3.97;;;;;;;6.69;100.00;102618.91;5033996;28;20216;-51
2023/05/31 02:20:33;;;;;;;5.28;4.50;;;;;;;6.58;100.00;102612.59;5037739;28;20178;-52
2023/05/31 02:23:00;;;;;;;5.57;4.18;;;;;;;6.44;100.00;102612.50;5037163;28;20172;-50
2023/05/31 02:25:26;;;;;;;6.05;4.15;;;;;;;6.44;100.00;102615.16;5036519;28;20706;-49
2023/05/31 02:27:52;;;;;;;5.63;4.60;;;;;;;6.36;100.00;102615.13;5036853;28;20184;-48
2023/05/31 02:30:17;;;;;;;6.15;4.40;;;;;;;6.38;100.00;102616.03;5040195;28;20195;-48
2023/05/31 02:32:43;;;;;;;6.43;4.85;;;;;;;6.29;100.00;102610.59;5042696;28;20215;-49
2023/05/31 02:35:10;;;;;;;4.50;4.10;;;;;;;6.48;100.00;102619.63;5041487;28;20200;-49
2023/05/31 02:37:38;;;;;;;5.70;4.47;;;;;;;6.50;100.00;102622.31;5032902;28;20626;-48
2023/05/31 02:40:09;;;;;;;4.88;4.43;;;;;;;6.57;100.00;102624.13;5027498;28;20258;-49
2023/05/31 02:42:36;;;;;;;5.43;4.32;;;;;;;6.51;100.00;102602.78;5037695;28;20214;-49
2023/05/31 02:45:02;;;;;;;4.90;4.03;;;;;;;6.60;100.00;102619.75;5037981;28;20226;-50
2023/05/31 02:47:28;;;;;;;5.47;4.57;;;;;;;6.60;100.00;102616.16;5046166;28;20198;-49
2023/05/31 02:49:53;;;;;;;6.43;4.32;;;;;;;6.38;100.00;102616.03;5038934;28;20184;-50
2023/05/31 02:52:26;;;;;;;4.75;4.25;;;;;;;6.43;100.00;102618.72;5035763;28;20196;-48
2023/05/31 02:55:05;;;;;;;6.40;4.50;;;;;;;6.38;100.00;102607.13;5034741;28;20336;-49
2023/05/31 02:57:37;;;;;;;6.55;4.40;;;;;;;6.31;100.00;102618.63;5037327;28;20689;-50
2023/05/31 03:00:13;;;;;;;5.68;4.18;;;;;;;6.39;100.00;102601.81;5045269;28;20190;-50
2023/05/31 03:02:40;;;;;;;6.10;4.40;;;;;;;6.44;100.00;102606.28;5036569;28;20241;-50
2023/05/31 03:05:23;;;;;;;4.78;4.30;;;;;;;6.35;100.00;102599.13;5036387;28;20223;-48
2023/05/31 03:07:48;;;;;;;6.20;4.35;;;;;;;6.31;100.00;102605.31;5037315;28;20195;-50
2023/05/31 03:10:14;;;;;;;4.07;3.67;;;;;;;6.44;100.00;102607.19;5035951;28;20210;-51
2023/05/31 03:12:40;;;;;;;5.30;4.00;;;;;;;6.44;100.00;102595.66;5040925;28;20235;-51
2023/05/31 03:15:07;;;;;;;5.53;4.05;;;;;;;6.50;100.00;102601.91;5047656;28;20258;-50
2023/05/31 03:17:33;;;;;;;6.10;4.40;;;;;;;6.12;100.00;102594.53;5044910;28;20191;-50
2023/05/31 03:19:58;;;;;;;6.68;4.60;;;;;;;6.06;100.00;102594.47;5048946;28;20183;-51
2023/05/31 03:22:25;;;;;;;5.07;4.30;;;;;;;6.11;100.00;102594.50;5042019;28;20192;-50
2023/05/31 03:24:51;;;;;;;6.50;4.70;;;;;;;6.10;100.00;102595.34;5036093;28;20585;-51
2023/05/31 03:27:17;;;;;;;4.85;4.38;;;;;;;6.22;100.00;102592.81;5038722;28;20207;-50
2023/05/31 03:29:43;;;;;;;5.70;4.38;;;;;;;6.30;100.00;102603.53;5042086;28;20196;-50
2023/05/31 03:32:09;;;;;;;6.70;4.20;;;;;;;6.37;100.00;102603.59;5040843;28;20188;-51
2023/05/31 03:34:34;;;;;;;6.05;4.28;;;;;;;6.40;100.00;102598.25;5040882;28;20195;-51
2023/05/31 03:37:01;;;;;;;5.10;4.30;;;;;;;6.51;100.00;102598.34;5038644;28;20690;-50
2023/05/31 03:39:53;;;;;;;6.93;4.60;;;;;;;6.49;100.00;102602.75;5028065;28;20636;-49
2023/05/31 03:42:26;;;;;;;6.53;5.13;;;;;;;6.56;100.00;102593.09;5045000;28;20241;-50
2023/05/31 03:44:52;;;;;;;5.15;4.10;;;;;;;6.64;100.00;102602.00;5039959;28;20207;-50
2023/05/31 03:47:18;;;;;;;5.70;4.75;;;;;;;6.55;100.00;102586.84;5041912;28;20199;-51
2023/05/31 03:49:43;;;;;;;5.88;4.90;;;;;;;6.51;100.00;102587.69;5036215;28;20187;-50
2023/05/31 03:52:12;;;;;;;6.85;4.75;;;;;;;6.56;100.00;102595.75;5040523;28;20188;-51
2023/05/31 03:54:39;;;;;;;5.07;4.45;;;;;;;6.62;100.00;102586.88;5048084;28;20230;-49
2023/05/31 03:57:05;;;;;;;6.05;4.72;;;;;;;6.56;100.00;102593.09;5037589;28;20180;-50
2023/05/31 03:59:31;;;;;;;5.82;4.57;;;;;;;6.67;100.00;102594.03;5038528;28;20182;-49
2023/05/31 04:01:57;;;;;;;5.30;4.20;;;;;;;6.79;100.00;102583.44;5042109;28;20621;-51
2023/05/31 04:04:23;;;;;;;6.03;4.82;;;;;;;6.85;100.00;102592.38;5034063;28;20188;-50
2023/05/31 04:06:48;;;;;;;4.57;4.13;;;;;;;6.93;100.00;102591.53;5039435;28;20211;-51
2023/05/31 04:09:14;;;;;;;4.75;4.30;;;;;;;7.03;100.00;102580.91;5037960;28;20562;-51
2023/05/31 04:11:39;;;;;;;7.07;4.35;;;;;;;7.06;100.00;102581.78;5039496;28;20234;-51
2023/05/31 04:14:05;;;;;;;6.07;4.75;;;;;;;7.13;100.00;102582.75;5040122;28;20808;-52
2023/05/31 04:16:30;;;;;;;6.63;4.70;;;;;;;7.17;100.00;102574.75;5041220;28;20290;-50
2023/05/31 04:18:56;;;;;;;6.68;4.45;;;;;;;7.26;100.00;102578.31;5041986;28;20743;-52
2023/05/31 04:21:22;;;;;;;5.13;4.63;;;;;;;7.32;100.00;102568.56;5048463;28;20171;-52
2023/05/31 04:23:47;;;;;;;6.22;4.53;;;;;;;7.40;100.00;102571.28;5019124;28;20176;-53
2023/05/31 04:26:17;;;;;;;6.80;4.13;;;;;;;7.53;100.00;102573.06;5044446;28;20203;-50
2023/05/31 04:28:44;;;;;;;8.68;5.18;;;;;;;7.55;100.00;102583.75;5045683;28;20187;-47
2023/05/31 04:31:12;;;;;;;6.40;5.38;;;;;;;7.50;100.00;102573.09;5038015;28;20191;-47
2023/05/31 04:33:38;;;;;;;6.43;4.75;;;;;;;7.57;100.00;102576.66;5041377;28;20211;-47
2023/05/31 04:36:08;;;;;;;6.05;5.20;;;;;;;7.63;100.00;102585.56;5045683;28;20786;-48
2023/05/31 04:38:35;;;;;;;6.63;4.93;;;;;;;7.64;100.00;102582.00;5040405;28;20195;-46
2023/05/31 04:41:00;;;;;;;6.97;5.13;;;;;;;7.71;100.00;102585.56;5043581;28;20188;-45
2023/05/31 04:43:26;;;;;;;6.88;5.00;;;;;;;7.85;100.00;102585.59;5038076;28;20214;-46
2023/05/31 04:45:53;;;;;;;6.68;5.20;;;;;;;7.96;100.00;102588.25;5054068;28;20289;-47
2023/05/31 04:48:20;;;;;;;11.35;5.75;;;;;;;8.08;100.00;102590.06;5026946;28;20332;-44
2023/05/31 04:50:48;;;;;;;7.63;5.60;;;;;;;8.22;100.00;102583.84;5041994;28;20212;-46
2023/05/31 04:53:14;;;;;;;6.88;4.63;;;;;;;8.38;100.00;102595.41;5036580;28;20236;-46
2023/05/31 04:55:40;;;;;;;9.27;5.75;;;;;;;8.63;100.00;102582.03;5040325;28;20302;-47
2023/05/31 04:58:08;;;;;;;7.95;5.40;;;;;;;8.84;100.00;102590.00;5048106;28;20663;-47
2023/05/31 05:00:36;;;;;;;6.32;5.30;;;;;;;8.95;100.00;102586.41;5041943;28;20236;-47
2023/05/31 05:03:11;;;;;;;7.30;5.47;;;;;;;9.05;100.00;102580.13;5047616;28;20221;-46
2023/05/31 05:05:37;;;;;;;5.97;5.13;;;;;;;9.12;100.00;102575.63;5041655;28;20207;-45
2023/05/31 05:08:03;;;;;;;11.07;5.68;;;;;;;9.24;100.00;102586.31;5042441;28;20442;-45
2023/05/31 05:10:29;;;;;;;6.65;5.68;;;;;;;9.39;100.00;102586.22;5037376;28;20550;-46
2023/05/31 05:12:54;;;;;;;7.07;5.60;;;;;;;9.51;100.00;102579.03;5036054;28;20298;-46
2023/05/31 05:15:20;;;;;;;9.15;6.13;;;;;;;9.72;100.00;102586.94;5039125;28;20410;-46
2023/05/31 05:17:46;;;;;;;7.85;5.35;;;;;;;9.95;100.00;102580.50;5023961;28;20521;-44
2023/05/31 05:20:14;;;;;;;15.02;5.35;;;;;;;10.14;100.00;102578.59;5039094;28;20257;-46
2023/05/31 05:22:42;;;;;;;10.43;5.38;;;;;;;10.36;100.00;102574.84;5039649;28;20188;-46
2023/05/31 05:25:08;;;;;;;9.60;5.35;;;;;;;10.58;100.00;102575.53;5033532;28;20291;-46
2023/05/31 05:27:34;;;;;;;10.65;4.97;;;;;;;10.79;100.00;102570.84;5039987;28;20266;-46
2023/05/31 05:29:59;;;;;;;10.40;4.80;;;;;;;11.08;100.00;102571.38;5038223;28;20188;-45
2023/05/31 05:32:25;;;;;;;9.25;4.60;;;;;;;11.29;100.00;102564.88;5039286;28;20206;-46
2023/05/31 05:34:52;;;;;;;8.98;4.68;;;;;;;11.47;100.00;102558.34;5037321;28;20683;-46
2023/05/31 05:37:17;;;;;;;7.13;4.13;;;;;;;11.56;100.00;102560.00;5041795;28;20195;-45
2023/05/31 05:39:43;;;;;;;6.60;4.05;;;;;;;11.79;100.00;102565.06;5038398;28;20198;-46
2023/05/31 05:42:09;;;;;;;8.93;4.30;;;;;;;11.86;100.00;102555.97;5042495;28;20184;-46
2023/05/31 05:44:34;;;;;;;10.07;4.10;;;;;;;11.99;100.00;102543.28;5038502;28;20188;-46
2023/05/31 05:47:02;;;;;;;9.13;3.70;;;;;;;12.14;100.00;102545.69;5047316;28;20268;-45
2023/05/31 05:49:27;;;;;;;6.93;3.83;;;;;;;12.23;100.00;102547.34;5038241;28;20179;-45
2023/05/31 05:51:54;;;;;;;8.57;3.90;;;;;;;12.34;100.00;102550.72;5038608;28;20258;-45
2023/05/31 05:54:20;;;;;;;6.85;3.35;;;;;;;12.48;100.00;102538.81;5037065;28;20697;-45
2023/05/31 05:56:46;;;;;;;8.45;4.03;;;;;;;12.51;100.00;102531.59;5031529;28;20239;-46
2023/05/31 05:59:13;;;;;;;6.45;3.65;;;;;;;12.54;100.00;102533.34;5033845;28;20232;-47
2023/05/31 06:01:56;;;;;;;7.65;3.40;;;;;;;12.69;100.00;102521.41;5040586;28;20561;-47
2023/05/31 06:04:23;;;;;;;8.63;3.50;;;;;;;12.75;100.00;102507.84;5041899;28;20270;-46
2023/05/31 06:06:50;;;;;;;7.28;3.60;;;;;;;12.70;100.00;102505.25;5037969;28;20176;-47
2023/05/31 06:09:17;;;;;;;8.68;3.72;;;;;;;12.77;100.00;102506.88;5024056;28;20183;-46
2023/05/31 06:11:42;;;;;;;7.20;3.53;;;;;;;13.01;100.00;102509.06;5037351;28;20262;-46
2023/05/31 06:14:09;;;;;;;6.20;3.88;;;;;;;12.95;100.00;102499.34;5036400;28;20246;-47
2023/05/31 06:16:39;;;;;;;10.07;3.28;;;;;;;13.10;99.12;102487.38;5045036;28;20218;-46
2023/05/31 06:19:05;;;;;;;7.30;3.08;;;;;;;13.18;98.48;102497.03;5037388;28;20736;-47
2023/05/31 06:21:31;;;;;;;11.90;3.13;;;;;;;13.28;98.51;102502.22;5041396;28;20666;-46
2023/05/31 06:23:57;;;;;;;6.13;3.40;;;;;;;13.29;98.03;102495.94;5043411;28;20186;-46
2023/05/31 06:26:23;;;;;;;9.30;3.72;;;;;;;13.57;97.52;102504.25;5038023;28;20203;-45
2023/05/31 06:28:50;;;;;;;5.35;3.00;;;;;;;13.78;97.36;102505.53;5037853;28;20200;-47
2023/05/31 06:31:36;;;;;;;12.25;3.28;;;;;;;13.74;96.10;102501.16;5036003;28;20203;-52
2023/05/31 06:34:02;;;;;;;7.82;3.20;;;;;;;14.12;95.70;102505.56;5038161;28;20253;-46
2023/05/31 06:36:29;;;;;;;9.57;3.80;;;;;;;14.16;93.53;102500.97;5038869;28;20618;-47
2023/05/31 06:38:55;;;;;;;9.43;3.85;;;;;;;14.15;92.64;102489.31;5035004;28;20195;-51
2023/05/31 06:41:21;;;;;;;6.22;3.55;;;;;;;14.60;92.16;102498.91;5080547;22;20274;-47
2023/05/31 06:43:47;;;;;;;6.28;3.50;;;;;;;14.97;91.04;102492.44;5061957;28;20279;-47
2023/05/31 06:46:45;;;;;;;4.15;3.00;;;;;;;14.87;89.50;102491.84;5062950;28;20203;-51
2023/05/31 06:49:27;;;;;;;10.68;3.90;;;;;;;15.34;88.23;102494.88;5069766;28;20174;-50
2023/05/31 06:52:12;;;;;;;4.70;3.95;;;;;;;14.93;87.38;102494.31;5068911;28;20397;-49
2023/05/31 06:54:56;;;;;;;7.18;4.22;;;;;;;14.94;86.33;102493.41;5069419;28;20690;-50
2023/05/31 06:57:23;;;;;;;8.40;4.22;;;;;;;15.49;85.67;102495.34;5068149;28;20175;-51
2023/05/31 06:59:48;;;;;;;8.52;4.20;;;;;;;15.36;84.73;102494.84;5069501;28;20186;-50
2023/05/31 07:02:15;;;;;;;6.78;3.90;;;;;;;15.48;84.12;102488.16;5067620;28;20250;-49
2023/05/31 07:04:41;;;;;;;6.78;3.50;;;;;;;15.21;83.51;102480.88;5067489;28;20299;-48
2023/05/31 07:07:08;;;;;;;5.85;3.50;;;;;;;15.30;83.93;102479.69;5067958;28;20704;-48
2023/05/31 07:09:34;;;;;;;6.45;3.53;;;;;;;15.79;83.19;102479.97;5069994;28;20293;-48
2023/05/31 07:12:01;;;;;;;6.82;3.33;;;;;;;15.83;82.27;102473.50;5068754;28;20191;-47
2023/05/31 07:14:30;;;;;;;11.43;3.65;;;;;;;16.09;80.97;102471.72;5068731;28;20198;-48
2023/05/31 07:16:55;;;;;;;5.30;2.92;;;;;;;16.03;79.88;102470.16;5069187;28;20178;-48
2023/05/31 07:19:21;;;;;;;5.50;3.40;;;;;;;16.66;78.54;102457.00;5068674;28;20648;-48
2023/05/31 07:21:47;;;;;;;7.82;3.05;;;;;;;16.67;76.41;102459.66;5070148;28;20277;-49
2023/05/31 07:24:12;;;;;;;3.67;2.80;;;;;;;17.07;75.94;102450.03;5070175;28;20388;-52
2023/05/31 07:26:37;;;;;;;4.45;3.00;;;;;;;17.21;74.46;102443.22;5070007;28;20187;-48
2023/05/31 07:29:03;;;;;;;4.47;2.80;;;;;;;16.57;74.09;102442.00;5070230;28;20540;-47
2023/05/31 07:31:29;;;;;;;5.90;3.30;;;;;;;17.23;74.12;102447.63;5069974;28;20159;-49
2023/05/31 07:33:55;;;;;;;4.80;2.88;;;;;;;17.46;73.77;102441.22;5058115;28;20665;-52
2023/05/31 07:36:24;;;;;;;4.00;2.60;;;;;;;17.59;71.43;102419.94;5049666;28;20222;-50
2023/05/31 07:38:52;;;;;;;3.80;2.63;;;;;;;17.85;70.90;102417.97;5049713;28;20638;-49
2023/05/31 07:41:17;;;;;;;5.25;2.20;;;;;;;18.07;70.72;102418.78;5049794;28;20254;-46
2023/05/31 07:43:44;;;;;;;3.90;2.20;;;;;;;18.01;69.41;102412.75;5061036;28;20595;-48
2023/05/31 07:46:10;;;;;;;4.15;2.50;;;;;;;17.99;69.01;102406.50;5069581;28;20264;-45
2023/05/31 07:48:35;;;;;;;3.17;2.20;;;;;;;17.75;68.96;102401.16;5069579;28;20171;-46
2023/05/31 07:51:01;;;;;;;6.40;2.83;;;;;;;18.06;67.26;102392.63;5069393;28;20207;-47
2023/05/31 07:53:26;;;;;;;6.40;2.83;;;;;;;18.05;67.24;102381.84;5069428;28;20232;-46
2023/05/31 07:55:52;;;;;;;5.55;3.15;;;;;;;18.42;67.01;102393.72;5069263;28;20205;-47
2023/05/31 07:58:17;;;;;;;6.90;3.00;;;;;;;18.10;67.20;102379.78;5071002;28;20167;-46
2023/05/31 08:00:43;;;;;;;4.20;2.33;;;;;;;18.16;66.95;102381.34;5071542;28;20224;-49
2023/05/31 08:03:08;;;;;;;5.88;2.00;;;;;;;18.73;66.53;102379.56;5073220;28;20194;-47
2023/05/31 08:05:34;;;;;;;5.28;2.17;;;;;;;18.22;65.77;102373.81;5072947;28;20201;-46
2023/05/31 08:08:16;;;;;;;4.13;2.25;;;;;;;18.32;65.36;102367.03;5071073;28;20265;-47
2023/05/31 08:10:43;;;;;;;7.10;2.45;;;;;;;18.18;66.13;102374.03;5052504;28;20191;-46
2023/05/31 08:13:09;;;;;;;4.15;2.00;;;;;;;18.92;65.15;102368.75;5064158;28;20643;-47
2023/05/31 08:15:34;;;;;;;4.28;1.80;;;;;;;18.70;64.80;102367.03;5045932;28;20211;-46
2023/05/31 08:18:00;;;;;;;7.57;2.78;;;;;;;18.32;64.42;102349.84;5063455;28;20541;-46
2023/05/31 08:20:26;;;;;;;5.90;2.13;;;;;;;18.71;64.61;102357.91;5042559;28;20262;-46
2023/05/31 08:22:53;;;;;;;3.45;1.90;;;;;;;19.13;63.94;102351.41;5057738;28;20176;-47
2023/05/31 08:25:18;;;;;;;4.93;2.20;;;;;;;19.28;63.38;102346.13;5057221;28;20670;-47
2023/05/31 08:27:44;;;;;;;4.03;1.80;;;;;;;19.44;63.01;102341.69;5061714;28;20179;-46
2023/05/31 08:30:11;;;;;;;8.07;2.00;;;;;;;19.06;62.81;102349.03;5058767;28;20224;-47
2023/05/31 08:32:37;;;;;;;7.25;1.77;;;;;;;18.91;62.36;102343.44;5062152;28;20728;-47
2023/05/31 08:35:03;;;;;;;4.20;1.45;;;;;;;19.34;62.96;102343.97;5058884;28;20318;-47
2023/05/31 08:37:28;;;;;;;2.95;1.55;;;;;;;19.08;61.83;102338.97;5059874;28;20226;-48
2023/05/31 08:39:54;;;;;;;3.45;1.63;;;;;;;19.64;61.41;102342.50;5059531;28;20190;-47
2023/05/31 08:42:27;;;;;;;5.22;1.67;;;;;;;19.89;61.36;102329.34;5058789;28;20190;-48
2023/05/31 08:44:53;;;;;;;2.78;1.30;;;;;;;20.20;60.01;102318.66;5061083;28;20732;-47
2023/05/31 08:47:35;;;;;;;5.63;1.23;;;;;;;20.67;59.82;102317.88;5059906;28;20236;-48
2023/05/31 08:50:02;;;;;;;1.40;0.90;;;;;;;20.76;58.18;102312.78;5060751;28;20383;-46
2023/05/31 08:52:30;;;;;;;5.03;1.25;;;;;;;20.15;57.25;102291.69;5055781;28;20186;-50
2023/05/31 08:54:56;;;;;;;4.13;1.40;;;;;;;20.19;59.09;102303.31;5065459;28;20392;-47
2023/05/31 08:57:23;;;;;;;2.33;1.25;;;;;;;20.64;58.11;102305.31;5061348;28;20278;-49
2023/05/31 08:59:50;;;;;;;5.55;1.77;;;;;;;20.93;57.14;102289.13;5063759;28;20466;-48
2023/05/31 09:02:16;;;;;;;3.60;1.60;;;;;;;20.53;56.62;102280.50;5063674;28;20244;-48
2023/05/31 09:04:43;;;;;;;3.97;1.42;;;;;;;21.13;56.83;102287.94;5059364;28;20199;-49
2023/05/31 09:07:08;;;;;;;3.30;1.60;;;;;;;20.63;57.42;102280.88;5067209;28;20178;-49
2023/05/31 09:09:34;;;;;;;4.90;1.58;;;;;;;20.30;56.91;102285.41;5065708;28;20182;-46
2023/05/31 09:12:00;;;;;;;3.70;1.20;;;;;;;20.47;56.71;102280.88;5064583;28;20190;-49
2023/05/31 09:14:26;;;;;;;5.55;1.50;;;;;;;21.13;55.76;102268.88;5059068;28;20197;-49
2023/05/31 09:16:52;;;;;;;4.72;1.45;;;;;;;21.33;54.99;102270.38;5062145;28;20653;-49
2023/05/31 09:19:17;;;;;;;5.45;1.52;;;;;;;20.34;56.64;102273.38;5059812;28;20182;-50
2023/05/31 09:21:44;;;;;;;4.68;1.77;;;;;;;19.80;56.86;102272.75;5063178;28;20534;-48
2023/05/31 09:24:13;;;;;;;2.75;1.02;;;;;;;21.09;56.83;102278.19;5068464;28;20621;-49
2023/05/31 09:26:47;;;;;;;4.82;1.58;;;;;;;21.56;54.67;102252.66;5070821;28;20553;-48
2023/05/31 09:29:13;;;;;;;4.38;1.13;;;;;;;20.99;55.63;102259.66;5061647;28;20193;-48
2023/05/31 09:31:38;;;;;;;4.78;1.40;;;;;;;21.16;55.39;102261.38;5058098;28;20247;-48
2023/05/31 09:34:04;;;;;;;2.88;1.30;;;;;;;21.13;55.27;102263.41;5060071;28;20198;-49
2023/05/31 09:36:31;;;;;;;7.05;1.60;;;;;;;21.15;54.75;102264.19;5065094;28;20226;-46
2023/05/31 09:39:07;;;;;;;4.25;1.55;;;;;;;21.46;54.93;102255.06;5063555;28;20648;-48
2023/05/31 09:41:33;;;;;;;3.80;1.20;;;;;;;20.70;55.26;102249.59;5059750;28;20660;-49
2023/05/31 09:43:59;;;;;;;6.53;1.27;;;;;;;21.34;54.88;102253.03;5057728;28;20226;-51
2023/05/31 09:46:25;;;;;;;1.83;1.27;;;;;;;20.94;54.99;102245.41;5054445;28;20269;-49
2023/05/31 09:48:58;;;;;;;3.20;1.27;;;;;;;21.23;54.22;102244.66;5059287;28;20271;-48
2023/05/31 09:51:24;;;;;;;3.22;1.20;;;;;;;20.92;53.87;102231.00;5059027;28;20316;-49
2023/05/31 09:53:57;;;;;;;9.82;2.13;;;;;;;20.94;53.63;102241.81;5057063;28;20686;-49
2023/05/31 09:56:26;;;;;;;4.20;1.52;;;;;;;21.48;53.19;102239.47;5065072;28;20801;-49
2023/05/31 09:58:52;;;;;;;7.63;1.80;;;;;;;21.21;53.68;102228.41;5059646;28;20241;-50
2023/05/31 10:01:19;;;;;;;7.07;1.40;;;;;;;21.36;52.27;102213.84;5056267;28;20716;-51
2023/05/31 10:03:46;;;;;;;6.10;1.95;;;;;;;21.72;53.05;102226.16;5056265;28;20675;-50
2023/05/31 10:06:15;;;;;;;3.33;1.27;;;;;;;22.11;52.95;102235.50;5062539;28;20687;-50
2023/05/31 10:08:42;;;;;;;5.75;1.50;;;;;;;21.66;52.94;102207.44;5066767;28;20185;-49
2023/05/31 10:11:12;;;;;;;4.75;1.27;;;;;;;21.72;52.00;102201.63;5062564;28;20268;-51
2023/05/31 10:13:42;;;;;;;3.35;1.30;;;;;;;21.74;54.12;102215.16;5062904;28;20191;-49
2023/05/31 10:16:08;;;;;;;4.57;1.63;;;;;;;21.96;51.39;102190.09;5057220;28;20287;-50
2023/05/31 10:18:43;;;;;;;4.20;1.35;;;;;;;21.10;51.49;102182.72;5057855;28;20587;-49
2023/05/31 10:21:22;;;;;;;5.28;1.40;;;;;;;21.37;51.09;102176.53;5058999;28;20220;-51
2023/05/31 10:23:56;;;;;;;3.80;1.40;;;;;;;21.13;51.98;102193.41;5058721;28;20266;-50
2023/05/31 10:26:22;;;;;;;6.88;1.88;;;;;;;21.49;51.45;102178.50;5064092;28;20194;-48
2023/05/31 10:28:59;;;;;;;4.18;1.45;;;;;;;21.68;51.60;102189.13;5063413;28;20235;-50
2023/05/31 10:31:35;;;;;;;2.97;1.48;;;;;;;21.88;50.40;102173.34;5058908;28;20171;-51
2023/05/31 10:34:25;;;;;;;2.97;1.33;;;;;;;21.58;50.81;102163.41;5065588;28;20302;-51
2023/05/31 10:36:55;;;;;;;3.20;1.48;;;;;;;22.06;50.14;102169.41;5042103;28;20210;-50
2023/05/31 10:39:48;;;;;;;3.50;1.35;;;;;;;21.80;50.90;102168.41;5055429;28;20681;-49
2023/05/31 10:42:16;;;;;;;4.75;1.73;;;;;;;21.64;51.19;102173.06;5058541;28;20190;-48
2023/05/31 10:45:11;;;;;;;5.57;1.58;;;;;;;21.85;50.74;102170.81;5057750;28;20194;-48
2023/05/31 10:47:44;;;;;;;3.50;1.58;;;;;;;21.64;51.45;102178.53;5051658;28;20174;-50
2023/05/31 10:50:17;;;;;;;2.45;1.52;;;;;;;21.83;51.10;102156.41;5065201;28;20189;-50
2023/05/31 10:52:42;;;;;;;3.78;1.55;;;;;;;21.66;51.94;102165.66;5056805;28;20641;-49
2023/05/31 10:55:44;;;;;;;4.97;2.00;;;;;;;21.88;52.76;102170.63;5059419;28;20311;-49
2023/05/31 10:58:29;;;;;;;5.70;1.60;;;;;;;22.12;53.43;102177.19;5045309;28;20217;-49
2023/05/31 11:00:56;;;;;;;4.45;1.90;;;;;;;21.81;53.39;102172.88;5061577;28;20660;-49
2023/05/31 11:03:23;;;;;;;5.28;1.83;;;;;;;21.85;53.86;102192.66;5061005;28;20189;-49
2023/05/31 11:06:00;;;;;;;5.72;1.77;;;;;;;21.71;53.96;102177.16;5058272;28;20198;-48
2023/05/31 11:08:27;;;;;;;4.28;1.77;;;;;;;22.07;53.92;102178.50;5055537;28;20178;-49
2023/05/31 11:10:52;;;;;;;2.22;1.50;;;;;;;21.46;53.06;102154.16;5059320;28;20231;-49
2023/05/31 11:13:19;;;;;;;4.57;1.63;;;;;;;21.37;53.31;102155.59;5061582;28;20201;-51
2023/05/31 11:15:46;;;;;;;4.63;1.70;;;;;;;21.42;53.70;102165.38;5064505;28;20351;-49
2023/05/31 11:18:26;;;;;;;3.15;1.80;;;;;;;21.63;53.67;102169.47;5057817;28;20320;-47
2023/05/31 11:20:52;;;;;;;5.15;1.60;;;;;;;21.70;52.93;102162.63;5058510;28;20186;-47
2023/05/31 11:23:20;;;;;;;3.03;1.50;;;;;;;21.79;52.12;102156.59;5058745;28;20232;-46
2023/05/31 11:26:08;;;;;;;5.93;1.70;;;;;;;21.93;51.22;102144.78;5055661;28;20214;-49
2023/05/31 11:28:55;;;;;;;6.05;1.70;;;;;;;21.81;50.98;102127.34;5058335;28;20179;-47
2023/05/31 11:32:06;;;;;;;5.70;1.85;;;;;;;21.48;52.39;102137.72;5056569;28;20711;-47